sensor_id;sensor_type;location;lat;lon;timestamp;pressure;altitude;pressure_sealevel;temperature;humidity
79123;BME280;68526;44.600;26.032;2023-04-12T00:00:00;99231.53;;;10.40;70.33
79123;BME280;68526;44.600;26.032;2023-04-12T00:00:16;99227.56;;;10.38;69.74
79123;BME280;68526;44.600;26.032;2023-04-12T00:00:32;99231.19;;;10.42;70.10
79123;BME280;68526;44.600;26.032;2023-04-12T00:00:48;99233.94;;;10.42;70.22
79123;BME280;68526;44.600;26.032;2023-04-12T00:01:05;99231.53;;;10.40;70.06
79123;BME280;68526;44.600;26.032;2023-04-12T00:01:22;99223.78;;;10.42;70.16
79123;BME280;68526;44.600;26.032;2023-04-12T00:01:38;99225.38;;;10.43;69.91
79123;BME280;68526;44.600;26.032;2023-04-12T00:01:54;99225.72;;;10.42;69.98
79123;BME280;68526;44.600;26.032;2023-04-12T00:02:10;99229.25;;;10.42;70.07
79123;BME280;68526;44.600;26.032;2023-04-12T00:02:26;99226.50;;;10.42;69.88
79123;BME280;68526;44.600;26.032;2023-04-12T00:02:43;99227.66;;;10.41;70.00
79123;BME280;68526;44.600;26.032;2023-04-12T00:03:00;99230.88;;;10.43;70.21
79123;BME280;68526;44.600;26.032;2023-04-12T00:03:17;99225.28;;;10.40;69.71
79123;BME280;68526;44.600;26.032;2023-04-12T00:03:34;99230.41;;;10.41;69.87
79123;BME280;68526;44.600;26.032;2023-04-12T00:03:50;99225.38;;;10.43;69.85
79123;BME280;68526;44.600;26.032;2023-04-12T00:04:08;99233.59;;;10.43;69.61
79123;BME280;68526;44.600;26.032;2023-04-12T00:04:26;99232.78;;;10.43;69.92
79123;BME280;68526;44.600;26.032;2023-04-12T00:04:42;99230.31;;;10.38;69.70
79123;BME280;68526;44.600;26.032;2023-04-12T00:04:58;99226.06;;;10.40;69.43
79123;BME280;68526;44.600;26.032;2023-04-12T00:05:17;99227.31;;;10.43;69.21
79123;BME280;68526;44.600;26.032;2023-04-12T00:05:33;99228.94;;;10.44;69.44
79123;BME280;68526;44.600;26.032;2023-04-12T00:05:51;99229.25;;;10.42;69.41
79123;BME280;68526;44.600;26.032;2023-04-12T00:06:08;99231.66;;;10.44;69.28
79123;BME280;68526;44.600;26.032;2023-04-12T00:06:24;99228.13;;;10.43;68.67
79123;BME280;68526;44.600;26.032;2023-04-12T00:06:46;99230.03;;;10.43;68.75
79123;BME280;68526;44.600;26.032;2023-04-12T00:07:03;99226.75;;;10.37;68.38
79123;BME280;68526;44.600;26.032;2023-04-12T00:07:20;99217.41;;;10.38;68.34
79123;BME280;68526;44.600;26.032;2023-04-12T00:07:37;99228.13;;;10.43;68.24
79123;BME280;68526;44.600;26.032;2023-04-12T00:07:53;99228.56;;;10.46;68.16
79123;BME280;68526;44.600;26.032;2023-04-12T00:08:10;99217.97;;;10.44;68.11
79123;BME280;68526;44.600;26.032;2023-04-12T00:08:25;99227.78;;;10.45;68.09
79123;BME280;68526;44.600;26.032;2023-04-12T00:08:47;99228.13;;;10.43;67.72
79123;BME280;68526;44.600;26.032;2023-04-12T00:09:04;99229.72;;;10.45;67.25
79123;BME280;68526;44.600;26.032;2023-04-12T00:09:20;99223.44;;;10.44;67.26
79123;BME280;68526;44.600;26.032;2023-04-12T00:09:36;99218.75;;;10.45;67.17
79123;BME280;68526;44.600;26.032;2023-04-12T00:09:52;99218.28;;;10.42;67.52
79123;BME280;68526;44.600;26.032;2023-04-12T00:10:08;99223.78;;;10.42;67.34
79123;BME280;68526;44.600;26.032;2023-04-12T00:10:24;99221.38;;;10.41;67.43
79123;BME280;68526;44.600;26.032;2023-04-12T00:10:41;99223.78;;;10.42;67.28
79123;BME280;68526;44.600;26.032;2023-04-12T00:10:57;99224.56;;;10.43;67.65
79123;BME280;68526;44.600;26.032;2023-04-12T00:11:13;99220.25;;;10.42;67.21
79123;BME280;68526;44.600;26.032;2023-04-12T00:11:30;99227.66;;;10.41;67.02
79123;BME280;68526;44.600;26.032;2023-04-12T00:11:46;99219.44;;;10.41;67.33
79123;BME280;68526;44.600;26.032;2023-04-12T00:12:02;99224.47;;;10.39;67.40
79123;BME280;68526;44.600;26.032;2023-04-12T00:12:18;99218.66;;;10.41;67.46
79123;BME280;68526;44.600;26.032;2023-04-12T00:12:35;99215.47;;;10.39;67.11
79123;BME280;68526;44.600;26.032;2023-04-12T00:12:51;99222.97;;;10.42;67.26
79123;BME280;68526;44.600;26.032;2023-04-12T00:13:07;99215.47;;;10.39;67.10
79123;BME280;68526;44.600;26.032;2023-04-12T00:13:23;99221.03;;;10.42;67.10
79123;BME280;68526;44.600;26.032;2023-04-12T00:13:38;99225.72;;;10.42;67.05
79123;BME280;68526;44.600;26.032;2023-04-12T00:13:54;99222.97;;;10.42;66.86
79123;BME280;68526;44.600;26.032;2023-04-12T00:14:11;99228.44;;;10.42;67.16
79123;BME280;68526;44.600;26.032;2023-04-12T00:14:27;99206.94;;;10.28;66.75
79123;BME280;68526;44.600;26.032;2023-04-12T00:14:44;99227.22;;;10.39;66.76
79123;BME280;68526;44.600;26.032;2023-04-12T00:15:00;99227.22;;;10.39;66.93
79123;BME280;68526;44.600;26.032;2023-04-12T00:15:16;99221.97;;;10.34;66.52
79123;BME280;68526;44.600;26.032;2023-04-12T00:15:33;99220.94;;;10.39;66.64
79123;BME280;68526;44.600;26.032;2023-04-12T00:15:49;99225.28;;;10.40;66.49
79123;BME280;68526;44.600;26.032;2023-04-12T00:16:05;99226.06;;;10.40;66.78
79123;BME280;68526;44.600;26.032;2023-04-12T00:16:21;99226.06;;;10.40;67.22
79123;BME280;68526;44.600;26.032;2023-04-12T00:16:37;99224.13;;;10.41;67.17
79123;BME280;68526;44.600;26.032;2023-04-12T00:16:56;99222.19;;;10.41;66.66
79123;BME280;68526;44.600;26.032;2023-04-12T00:17:12;99230.41;;;10.41;66.75
79123;BME280;68526;44.600;26.032;2023-04-12T00:17:28;99216.72;;;10.41;66.74
79123;BME280;68526;44.600;26.032;2023-04-12T00:17:43;99224.56;;;10.43;67.00
79123;BME280;68526;44.600;26.032;2023-04-12T00:18:00;99220.25;;;10.42;66.67
79123;BME280;68526;44.600;26.032;2023-04-12T00:18:17;99218.66;;;10.41;66.68
79123;BME280;68526;44.600;26.032;2023-04-12T00:18:33;99228.13;;;10.43;66.57
79123;BME280;68526;44.600;26.032;2023-04-12T00:18:49;99221.81;;;10.43;66.52
79123;BME280;68526;44.600;26.032;2023-04-12T00:19:05;99222.66;;;10.43;66.61
79123;BME280;68526;44.600;26.032;2023-04-12T00:19:21;99223.44;;;10.44;66.31
79123;BME280;68526;44.600;26.032;2023-04-12T00:19:43;99220.25;;;10.42;66.83
79123;BME280;68526;44.600;26.032;2023-04-12T00:20:02;99223.69;;;10.39;67.09
79123;BME280;68526;44.600;26.032;2023-04-12T00:20:19;99212.38;;;10.40;66.70
79123;BME280;68526;44.600;26.032;2023-04-12T00:20:35;99210.31;;;10.37;66.77
79123;BME280;68526;44.600;26.032;2023-04-12T00:20:51;99222.66;;;10.43;66.85
79123;BME280;68526;44.600;26.032;2023-04-12T00:21:07;99221.03;;;10.42;66.25
79123;BME280;68526;44.600;26.032;2023-04-12T00:21:24;99217.06;;;10.40;66.29
79123;BME280;68526;44.600;26.032;2023-04-12T00:21:43;99212.38;;;10.40;66.34
79123;BME280;68526;44.600;26.032;2023-04-12T00:21:58;99212.03;;;10.42;66.83
79123;BME280;68526;44.600;26.032;2023-04-12T00:22:14;99207.25;;;10.39;66.77
79123;BME280;68526;44.600;26.032;2023-04-12T00:22:30;99215.91;;;10.41;66.65
79123;BME280;68526;44.600;26.032;2023-04-12T00:22:46;99220.25;;;10.42;66.95
79123;BME280;68526;44.600;26.032;2023-04-12T00:23:02;99219.34;;;10.38;66.94
79123;BME280;68526;44.600;26.032;2023-04-12T00:23:19;99216.72;;;10.41;66.98
79123;BME280;68526;44.600;26.032;2023-04-12T00:23:35;99216.34;;;10.43;67.14
79123;BME280;68526;44.600;26.032;2023-04-12T00:23:52;99218.75;;;10.45;66.99
79123;BME280;68526;44.600;26.032;2023-04-12T00:24:08;99215.22;;;10.44;66.32
79123;BME280;68526;44.600;26.032;2023-04-12T00:24:24;99221.94;;;10.47;65.94
79123;BME280;68526;44.600;26.032;2023-04-12T00:24:40;99213.72;;;10.47;66.20
79123;BME280;68526;44.600;26.032;2023-04-12T00:24:57;99208.25;;;10.47;66.24
79123;BME280;68526;44.600;26.032;2023-04-12T00:25:13;99213.38;;;10.48;66.43
79123;BME280;68526;44.600;26.032;2023-04-12T00:25:29;99219.22;;;10.47;66.95
79123;BME280;68526;44.600;26.032;2023-04-12T00:25:45;99223.09;;;10.46;66.69
79123;BME280;68526;44.600;26.032;2023-04-12T00:26:00;99214.09;;;10.45;66.42
79123;BME280;68526;44.600;26.032;2023-04-12T00:26:16;99214.88;;;10.46;66.45
79123;BME280;68526;44.600;26.032;2023-04-12T00:26:32;99210.88;;;10.43;66.30
79123;BME280;68526;44.600;26.032;2023-04-12T00:26:49;99212.50;;;10.44;65.83
79123;BME280;68526;44.600;26.032;2023-04-12T00:27:05;99213.72;;;10.47;66.02
79123;BME280;68526;44.600;26.032;2023-04-12T00:27:21;99212.94;;;10.46;66.01
79123;BME280;68526;44.600;26.032;2023-04-12T00:27:36;99214.09;;;10.45;65.82
79123;BME280;68526;44.600;26.032;2023-04-12T00:27:53;99210.19;;;10.46;65.89
79123;BME280;68526;44.600;26.032;2023-04-12T00:28:09;99209.41;;;10.46;65.90
79123;BME280;68526;44.600;26.032;2023-04-12T00:28:26;99212.59;;;10.48;65.51
79123;BME280;68526;44.600;26.032;2023-04-12T00:28:44;99214.53;;;10.47;65.52
79123;BME280;68526;44.600;26.032;2023-04-12T00:29:00;99208.97;;;10.43;65.54
79123;BME280;68526;44.600;26.032;2023-04-12T00:29:15;99215.31;;;10.48;65.59
79123;BME280;68526;44.600;26.032;2023-04-12T00:29:32;99211.00;;;10.47;65.85
79123;BME280;68526;44.600;26.032;2023-04-12T00:29:47;99212.94;;;10.46;65.32
79123;BME280;68526;44.600;26.032;2023-04-12T00:30:04;99210.56;;;10.45;65.25
79123;BME280;68526;44.600;26.032;2023-04-12T00:30:21;99214.53;;;10.47;65.38
79123;BME280;68526;44.600;26.032;2023-04-12T00:30:38;99214.53;;;10.47;65.67
79123;BME280;68526;44.600;26.032;2023-04-12T00:30:55;99212.94;;;10.46;65.82
79123;BME280;68526;44.600;26.032;2023-04-12T00:31:11;99197.19;;;10.43;65.64
79123;BME280;68526;44.600;26.032;2023-04-12T00:31:27;99211.00;;;10.47;65.23
79123;BME280;68526;44.600;26.032;2023-04-12T00:31:44;99206.31;;;10.47;65.45
79123;BME280;68526;44.600;26.032;2023-04-12T00:32:00;99205.88;;;10.45;64.90
79123;BME280;68526;44.600;26.032;2023-04-12T00:32:18;99213.38;;;10.48;64.80
79123;BME280;68526;44.600;26.032;2023-04-12T00:32:33;99205.16;;;10.48;64.88
79123;BME280;68526;44.600;26.032;2023-04-12T00:32:49;99210.63;;;10.48;64.69
79123;BME280;68526;44.600;26.032;2023-04-12T00:33:05;99207.09;;;10.48;64.81
79123;BME280;68526;44.600;26.032;2023-04-12T00:33:21;99208.25;;;10.47;64.34
79123;BME280;68526;44.600;26.032;2023-04-12T00:33:38;99211.44;;;10.49;64.67
79123;BME280;68526;44.600;26.032;2023-04-12T00:33:54;99187.19;;;10.35;65.25
79123;BME280;68526;44.600;26.032;2023-04-12T00:34:10;99209.06;;;10.47;65.32
79123;BME280;68526;44.600;26.032;2023-04-12T00:34:26;99213.38;;;10.48;64.68
79123;BME280;68526;44.600;26.032;2023-04-12T00:34:43;99214.53;;;10.47;64.99
79123;BME280;68526;44.600;26.032;2023-04-12T00:34:59;99211.00;;;10.47;64.49
79123;BME280;68526;44.600;26.032;2023-04-12T00:35:16;99211.78;;;10.47;64.73
79123;BME280;68526;44.600;26.032;2023-04-12T00:35:32;99208.25;;;10.47;64.54
79123;BME280;68526;44.600;26.032;2023-04-12T00:35:48;99214.53;;;10.47;64.29
79123;BME280;68526;44.600;26.032;2023-04-12T00:36:04;99202.66;;;10.43;64.78
79123;BME280;68526;44.600;26.032;2023-04-12T00:36:20;99209.06;;;10.47;64.55
79123;BME280;68526;44.600;26.032;2023-04-12T00:36:36;99210.63;;;10.48;64.76
79123;BME280;68526;44.600;26.032;2023-04-12T00:36:53;99205.97;;;10.49;65.05
79123;BME280;68526;44.600;26.032;2023-04-12T00:37:09;99209.50;;;10.49;65.03
79123;BME280;68526;44.600;26.032;2023-04-12T00:37:25;99206.75;;;10.49;65.01
79123;BME280;68526;44.600;26.032;2023-04-12T00:37:41;99205.53;;;10.47;65.48
79123;BME280;68526;44.600;26.032;2023-04-12T00:37:56;99210.31;;;10.50;65.09
79123;BME280;68526;44.600;26.032;2023-04-12T00:38:13;99202.09;;;10.50;65.38
79123;BME280;68526;44.600;26.032;2023-04-12T00:38:30;99203.56;;;10.47;65.71
79123;BME280;68526;44.600;26.032;2023-04-12T00:38:45;99209.84;;;10.48;65.33
79123;BME280;68526;44.600;26.032;2023-04-12T00:39:01;99208.69;;;10.49;65.38
79123;BME280;68526;44.600;26.032;2023-04-12T00:39:17;99211.00;;;10.47;64.96
79123;BME280;68526;44.600;26.032;2023-04-12T00:39:34;99214.53;;;10.47;65.17
79123;BME280;68526;44.600;26.032;2023-04-12T00:39:50;99206.66;;;10.46;65.03
79123;BME280;68526;44.600;26.032;2023-04-12T00:40:08;99208.69;;;10.49;64.71
79123;BME280;68526;44.600;26.032;2023-04-12T00:40:24;99205.97;;;10.49;64.90
79123;BME280;68526;44.600;26.032;2023-04-12T00:40:40;99211.00;;;10.47;64.57
79123;BME280;68526;44.600;26.032;2023-04-12T00:40:56;99211.78;;;10.47;64.70
79123;BME280;68526;44.600;26.032;2023-04-12T00:41:14;99206.66;;;10.46;63.93
79123;BME280;68526;44.600;26.032;2023-04-12T00:41:29;99204.00;;;10.49;64.43
79123;BME280;68526;44.600;26.032;2023-04-12T00:41:46;99201.63;;;10.48;64.43
79123;BME280;68526;44.600;26.032;2023-04-12T00:42:02;99206.31;;;10.47;64.46
79123;BME280;68526;44.600;26.032;2023-04-12T00:42:18;99204.38;;;10.48;64.76
79123;BME280;68526;44.600;26.032;2023-04-12T00:42:35;99209.50;;;10.49;64.57
79123;BME280;68526;44.600;26.032;2023-04-12T00:42:52;99211.00;;;10.47;64.10
79123;BME280;68526;44.600;26.032;2023-04-12T00:43:08;99212.16;;;10.46;64.25
79123;BME280;68526;44.600;26.032;2023-04-12T00:43:24;99208.97;;;10.43;64.61
79123;BME280;68526;44.600;26.032;2023-04-12T00:43:42;99205.16;;;10.48;64.29
79123;BME280;68526;44.600;26.032;2023-04-12T00:43:58;99207.91;;;10.48;64.59
79123;BME280;68526;44.600;26.032;2023-04-12T00:44:14;99206.22;;;10.43;64.02
79123;BME280;68526;44.600;26.032;2023-04-12T00:44:32;99195.50;;;10.38;64.16
79123;BME280;68526;44.600;26.032;2023-04-12T00:44:49;99209.84;;;10.48;64.50
79123;BME280;68526;44.600;26.032;2023-04-12T00:45:06;99197.75;;;10.49;64.50
79123;BME280;68526;44.600;26.032;2023-04-12T00:45:22;99211.78;;;10.47;64.10
79123;BME280;68526;44.600;26.032;2023-04-12T00:45:40;99205.97;;;10.49;63.79
79123;BME280;68526;44.600;26.032;2023-04-12T00:45:56;99174.31;;;10.23;63.54
79123;BME280;68526;44.600;26.032;2023-04-12T00:46:12;99208.38;;;10.50;63.86
79123;BME280;68526;44.600;26.032;2023-04-12T00:46:28;99203.69;;;10.51;63.58
79123;BME280;68526;44.600;26.032;2023-04-12T00:46:44;99196.50;;;10.46;63.61
79123;BME280;68526;44.600;26.032;2023-04-12T00:47:03;99202.53;;;10.52;63.90
79123;BME280;68526;44.600;26.032;2023-04-12T00:47:19;99203.34;;;10.52;64.06
79123;BME280;68526;44.600;26.032;2023-04-12T00:47:35;99203.34;;;10.52;63.75
79123;BME280;68526;44.600;26.032;2023-04-12T00:47:53;99209.97;;;10.51;63.61
79123;BME280;68526;44.600;26.032;2023-04-12T00:48:09;99204.47;;;10.51;63.59
79123;BME280;68526;44.600;26.032;2023-04-12T00:48:26;99203.34;;;10.52;63.57
79123;BME280;68526;44.600;26.032;2023-04-12T00:48:42;99208.38;;;10.50;63.81
79123;BME280;68526;44.600;26.032;2023-04-12T00:48:59;99210.41;;;10.53;63.66
79123;BME280;68526;44.600;26.032;2023-04-12T00:49:17;99207.66;;;10.53;63.67
79123;BME280;68526;44.600;26.032;2023-04-12T00:49:33;99201.03;;;10.54;63.84
79123;BME280;68526;44.600;26.032;2023-04-12T00:49:51;99206.50;;;10.54;64.07
79123;BME280;68526;44.600;26.032;2023-04-12T00:50:08;99195.13;;;10.52;64.46
79123;BME280;68526;44.600;26.032;2023-04-12T00:50:25;99205.28;;;10.52;64.09
79123;BME280;68526;44.600;26.032;2023-04-12T00:50:41;99205.28;;;10.52;64.03
79123;BME280;68526;44.600;26.032;2023-04-12T00:50:59;99204.84;;;10.50;64.60
79123;BME280;68526;44.600;26.032;2023-04-12T00:51:15;99198.66;;;10.53;63.98
79123;BME280;68526;44.600;26.032;2023-04-12T00:51:32;99191.94;;;10.50;64.42
79123;BME280;68526;44.600;26.032;2023-04-12T00:51:48;99189.31;;;10.41;63.90
79123;BME280;68526;44.600;26.032;2023-04-12T00:52:06;99203.69;;;10.51;64.41
79123;BME280;68526;44.600;26.032;2023-04-12T00:52:22;99202.09;;;10.50;64.44
79123;BME280;68526;44.600;26.032;2023-04-12T00:52:38;99198.53;;;10.49;64.79
79123;BME280;68526;44.600;26.032;2023-04-12T00:52:56;99205.63;;;10.50;64.09
79123;BME280;68526;44.600;26.032;2023-04-12T00:53:13;99205.28;;;10.52;64.23
79123;BME280;68526;44.600;26.032;2023-04-12T00:53:30;99204.47;;;10.51;64.60
79123;BME280;68526;44.600;26.032;2023-04-12T00:53:46;99205.63;;;10.50;64.38
79123;BME280;68526;44.600;26.032;2023-04-12T00:54:02;99201.75;;;10.51;64.28
79123;BME280;68526;44.600;26.032;2023-04-12T00:54:19;99202.91;;;10.50;64.58
79123;BME280;68526;44.600;26.032;2023-04-12T00:54:36;99196.28;;;10.51;65.02
79123;BME280;68526;44.600;26.032;2023-04-12T00:54:52;99202.53;;;10.52;65.27
79123;BME280;68526;44.600;26.032;2023-04-12T00:55:09;99205.28;;;10.52;65.06
79123;BME280;68526;44.600;26.032;2023-04-12T00:55:24;99201.28;;;10.49;65.45
79123;BME280;68526;44.600;26.032;2023-04-12T00:55:43;99200.16;;;10.50;65.12
79123;BME280;68526;44.600;26.032;2023-04-12T00:56:00;99203.69;;;10.51;64.97
79123;BME280;68526;44.600;26.032;2023-04-12T00:56:18;99202.91;;;10.50;65.65
79123;BME280;68526;44.600;26.032;2023-04-12T00:56:34;99190.69;;;10.48;65.36
79123;BME280;68526;44.600;26.032;2023-04-12T00:56:51;99203.69;;;10.51;65.39
79123;BME280;68526;44.600;26.032;2023-04-12T00:57:07;99202.91;;;10.50;65.65
79123;BME280;68526;44.600;26.032;2023-04-12T00:57:24;99194.22;;;10.48;65.99
79123;BME280;68526;44.600;26.032;2023-04-12T00:57:39;99203.69;;;10.51;66.24
79123;BME280;68526;44.600;26.032;2023-04-12T00:57:55;99199.38;;;10.50;65.90
79123;BME280;68526;44.600;26.032;2023-04-12T00:58:12;99198.53;;;10.49;66.12
79123;BME280;68526;44.600;26.032;2023-04-12T00:58:28;99201.28;;;10.49;65.98
79123;BME280;68526;44.600;26.032;2023-04-12T00:58:46;99201.75;;;10.51;66.31
79123;BME280;68526;44.600;26.032;2023-04-12T00:59:03;99197.75;;;10.49;66.10
79123;BME280;68526;44.600;26.032;2023-04-12T00:59:19;99197.75;;;10.49;66.44
79123;BME280;68526;44.600;26.032;2023-04-12T00:59:35;99196.63;;;10.50;66.52
79123;BME280;68526;44.600;26.032;2023-04-12T00:59:51;99191.47;;;10.48;66.53
79123;BME280;68526;44.600;26.032;2023-04-12T01:00:09;99198.53;;;10.49;66.47
79123;BME280;68526;44.600;26.032;2023-04-12T01:00:28;99197.41;;;10.50;66.32
79123;BME280;68526;44.600;26.032;2023-04-12T01:00:43;99200.16;;;10.50;66.23
79123;BME280;68526;44.600;26.032;2023-04-12T01:01:04;99197.75;;;10.49;66.71
79123;BME280;68526;44.600;26.032;2023-04-12T01:01:21;99198.09;;;10.47;66.70
79123;BME280;68526;44.600;26.032;2023-04-12T01:01:37;99197.75;;;10.49;66.62
79123;BME280;68526;44.600;26.032;2023-04-12T01:01:56;99194.91;;;10.45;65.90
79123;BME280;68526;44.600;26.032;2023-04-12T01:02:11;99200.47;;;10.49;66.30
79123;BME280;68526;44.600;26.032;2023-04-12T01:02:27;99197.75;;;10.49;66.94
79123;BME280;68526;44.600;26.032;2023-04-12T01:02:45;99196.94;;;10.48;66.43
79123;BME280;68526;44.600;26.032;2023-04-12T01:03:04;99200.47;;;10.49;66.41
79123;BME280;68526;44.600;26.032;2023-04-12T01:03:23;99195.81;;;10.49;66.67
79123;BME280;68526;44.600;26.032;2023-04-12T01:03:42;99202.44;;;10.48;66.45
79123;BME280;68526;44.600;26.032;2023-04-12T01:03:58;99197.75;;;10.49;66.03
79123;BME280;68526;44.600;26.032;2023-04-12T01:04:15;99193.78;;;10.46;66.37
79123;BME280;68526;44.600;26.032;2023-04-12T01:04:31;99200.03;;;10.47;66.79
79123;BME280;68526;44.600;26.032;2023-04-12T01:04:48;99195.34;;;10.47;66.73
79123;BME280;68526;44.600;26.032;2023-04-12T01:05:15;99201.28;;;10.49;66.79
79123;BME280;68526;44.600;26.032;2023-04-12T01:05:42;99196.06;;;10.44;66.68
79123;BME280;68526;44.600;26.032;2023-04-12T01:06:08;99197.31;;;10.47;66.75
79123;BME280;68526;44.600;26.032;2023-04-12T01:06:36;99199.59;;;10.45;66.49
79123;BME280;68526;44.600;26.032;2023-04-12T01:07:03;99196.16;;;10.48;66.71
79123;BME280;68526;44.600;26.032;2023-04-12T01:07:28;99198.88;;;10.48;66.76
79123;BME280;68526;44.600;26.032;2023-04-12T01:07:52;99195.34;;;10.47;66.40
79123;BME280;68526;44.600;26.032;2023-04-12T01:08:14;99184.66;;;10.42;65.78
79123;BME280;68526;44.600;26.032;2023-04-12T01:08:39;99181.72;;;10.35;66.40
79123;BME280;68526;44.600;26.032;2023-04-12T01:09:03;99200.84;;;10.47;65.92
79123;BME280;68526;44.600;26.032;2023-04-12T01:09:28;99194.56;;;10.47;66.65
79123;BME280;68526;44.600;26.032;2023-04-12T01:09:55;99187.94;;;10.48;66.40
79123;BME280;68526;44.600;26.032;2023-04-12T01:10:26;99199.69;;;10.48;66.16
79123;BME280;68526;44.600;26.032;2023-04-12T01:11:02;99196.16;;;10.48;66.29
79123;BME280;68526;44.600;26.032;2023-04-12T01:11:27;99192.19;;;10.45;65.90
79123;BME280;68526;44.600;26.032;2023-04-12T01:11:50;99190.25;;;10.46;65.86
79123;BME280;68526;44.600;26.032;2023-04-12T01:12:15;99194.56;;;10.47;65.54
79123;BME280;68526;44.600;26.032;2023-04-12T01:12:43;99196.88;;;10.45;65.50
79123;BME280;68526;44.600;26.032;2023-04-12T01:13:09;99189.69;;;10.40;65.40
79123;BME280;68526;44.600;26.032;2023-04-12T01:13:29;99196.06;;;10.44;65.18
79123;BME280;68526;44.600;26.032;2023-04-12T01:13:59;99188.97;;;10.43;64.93
79123;BME280;68526;44.600;26.032;2023-04-12T01:14:27;99196.06;;;10.44;64.37
79123;BME280;68526;44.600;26.032;2023-04-12T01:14:50;99191.72;;;10.43;64.89
79123;BME280;68526;44.600;26.032;2023-04-12T01:15:11;99192.19;;;10.45;64.66
79123;BME280;68526;44.600;26.032;2023-04-12T01:15:31;99193.66;;;10.42;64.93
79123;BME280;68526;44.600;26.032;2023-04-12T01:15:52;99188.97;;;10.43;65.50
79123;BME280;68526;44.600;26.032;2023-04-12T01:16:15;99186.94;;;10.40;65.31
79123;BME280;68526;44.600;26.032;2023-04-12T01:16:37;99194.81;;;10.41;65.37
79123;BME280;68526;44.600;26.032;2023-04-12T01:16:59;99194.81;;;10.41;65.40
79123;BME280;68526;44.600;26.032;2023-04-12T01:17:20;99194.44;;;10.43;65.46
79123;BME280;68526;44.600;26.032;2023-04-12T01:17:45;99188.09;;;10.39;65.48
79123;BME280;68526;44.600;26.032;2023-04-12T01:18:06;99189.69;;;10.40;65.98
79123;BME280;68526;44.600;26.032;2023-04-12T01:18:24;99188.88;;;10.39;65.97
79123;BME280;68526;44.600;26.032;2023-04-12T01:18:45;99184.56;;;10.38;66.44
79123;BME280;68526;44.600;26.032;2023-04-12T01:19:17;99196.41;;;10.42;66.52
79123;BME280;68526;44.600;26.032;2023-04-12T01:19:47;99187.63;;;10.37;66.83
79123;BME280;68526;44.600;26.032;2023-04-12T01:20:14;99197.09;;;10.39;67.02
79123;BME280;68526;44.600;26.032;2023-04-12T01:20:36;99189.69;;;10.40;66.45
79123;BME280;68526;44.600;26.032;2023-04-12T01:21:04;99186.50;;;10.38;67.07
79123;BME280;68526;44.600;26.032;2023-04-12T01:21:27;99187.31;;;10.38;66.81
79123;BME280;68526;44.600;26.032;2023-04-12T01:21:55;99183.78;;;10.38;67.01
79123;BME280;68526;44.600;26.032;2023-04-12T01:22:37;99184.22;;;10.40;67.21
79123;BME280;68526;44.600;26.032;2023-04-12T01:23:14;99187.31;;;10.38;67.02
79123;BME280;68526;44.600;26.032;2023-04-12T01:23:50;99188.09;;;10.39;66.76
79123;BME280;68526;44.600;26.032;2023-04-12T01:24:22;99118.72;;;9.95;66.74
79123;BME280;68526;44.600;26.032;2023-04-12T01:24:47;99186.81;;;10.36;66.88
79123;BME280;68526;44.600;26.032;2023-04-12T01:25:18;99189.25;;;10.38;67.17
79123;BME280;68526;44.600;26.032;2023-04-12T01:25:52;99188.78;;;10.36;67.44
79123;BME280;68526;44.600;26.032;2023-04-12T01:26:23;99186.81;;;10.36;66.30
79123;BME280;68526;44.600;26.032;2023-04-12T01:26:47;99182.50;;;10.35;65.95
79123;BME280;68526;44.600;26.032;2023-04-12T01:27:38;99180.56;;;10.36;66.11
79123;BME280;68526;44.600;26.032;2023-04-12T01:28:00;99170.19;;;10.29;65.62
79123;BME280;68526;44.600;26.032;2023-04-12T01:28:21;99178.97;;;10.35;65.41
79123;BME280;68526;44.600;26.032;2023-04-12T01:28:41;99170.63;;;10.31;65.91
79123;BME280;68526;44.600;26.032;2023-04-12T01:29:00;99180.19;;;10.37;65.91
79123;BME280;68526;44.600;26.032;2023-04-12T01:29:20;99169.59;;;10.36;66.06
79123;BME280;68526;44.600;26.032;2023-04-12T01:29:36;99168.81;;;10.35;65.83
79123;BME280;68526;44.600;26.032;2023-04-12T01:29:54;99157.56;;;10.25;65.68
79123;BME280;68526;44.600;26.032;2023-04-12T01:30:13;99176.22;;;10.35;65.76
79123;BME280;68526;44.600;26.032;2023-04-12T01:30:31;99178.84;;;10.31;66.30
79123;BME280;68526;44.600;26.032;2023-04-12T01:30:49;99177.75;;;10.32;66.31
79123;BME280;68526;44.600;26.032;2023-04-12T01:31:06;99180.91;;;10.34;66.20
79123;BME280;68526;44.600;26.032;2023-04-12T01:31:24;99175.44;;;10.34;66.26
79123;BME280;68526;44.600;26.032;2023-04-12T01:31:50;99178.97;;;10.35;66.53
79123;BME280;68526;44.600;26.032;2023-04-12T01:32:09;99179.75;;;10.35;66.47
79123;BME280;68526;44.600;26.032;2023-04-12T01:32:28;99184.00;;;10.33;66.64
79123;BME280;68526;44.600;26.032;2023-04-12T01:32:47;99176.59;;;10.33;66.59
79123;BME280;68526;44.600;26.032;2023-04-12T01:33:05;99182.06;;;10.33;66.79
79123;BME280;68526;44.600;26.032;2023-04-12T01:33:24;99177.81;;;10.36;66.64
79123;BME280;68526;44.600;26.032;2023-04-12T01:33:46;99172.69;;;10.34;66.83
79123;BME280;68526;44.600;26.032;2023-04-12T01:34:04;99165.28;;;10.35;67.10
79123;BME280;68526;44.600;26.032;2023-04-12T01:34:22;99173.50;;;10.35;66.90
79123;BME280;68526;44.600;26.032;2023-04-12T01:34:38;99172.34;;;10.36;66.84
79123;BME280;68526;44.600;26.032;2023-04-12T01:34:56;99178.97;;;10.35;66.78
79123;BME280;68526;44.600;26.032;2023-04-12T01:35:15;99177.03;;;10.35;67.04
79123;BME280;68526;44.600;26.032;2023-04-12T01:35:32;99173.84;;;10.33;66.89
79123;BME280;68526;44.600;26.032;2023-04-12T01:35:49;99165.16;;;10.31;67.25
79123;BME280;68526;44.600;26.032;2023-04-12T01:36:10;99173.06;;;10.33;67.01
79123;BME280;68526;44.600;26.032;2023-04-12T01:36:27;99175.00;;;10.32;67.37